Time;durP1;ratioP1;P1;durP2;ratioP2;P2;SDS_P1;SDS_P2;PMS_P1;PMS_P2;Temp;Humidity;BMP_temperature;BMP_pressure;BME280_temperature;BME280_humidity;BME280_pressure;Samples;Min_cycle;Max_cycle;Signal;HPM_P1;HPM_P2
2024/01/25 00:00:31;;;;;;;27.93;26.13;;;;;;;-141.02;92.89;82020.88;5114872;28;20193;-77
2024/01/25 00:02:58;;;;;;;28.60;26.70;;;;;;;-141.02;93.35;82269.47;5114850;28;20247;-78
2024/01/25 00:05:25;;;;;;;22.70;21.10;;;;;;;-141.02;95.11;82269.47;5115357;28;20276;-79
2024/01/25 00:07:53;;;;;;;22.00;20.50;;;;;;;-141.02;96.58;82020.88;5114761;28;20722;-80
2024/01/25 00:10:20;;;;;;;26.83;25.13;;;;;;;-141.02;100.00;82020.88;5115005;28;20201;-80
2024/01/25 00:12:47;;;;;;;24.30;22.70;;;;;;;-141.02;100.00;82020.88;5114784;28;20198;-80
2024/01/25 00:15:14;;;;;;;19.63;18.43;;;;;;;-141.02;100.00;81772.31;5115004;28;20225;-78
2024/01/25 00:17:42;;;;;;;19.73;18.53;;;;;;;-141.02;100.00;81523.75;5115064;28;20228;-75
2024/01/25 00:20:15;;;;;;;26.07;24.57;;;;;;;-141.02;100.00;81523.75;5114225;28;20229;-77
2024/01/25 00:23:02;;;;;;;25.73;24.23;;;;;;;-141.02;100.00;81523.75;5114814;28;20193;-78
2024/01/25 00:25:31;;;;;;;20.10;18.90;;;;;;;-141.02;100.00;81772.31;5114431;28;20284;-79
2024/01/25 00:27:58;;;;;;;20.67;19.37;;;;;;;-141.02;100.00;82020.88;5114428;28;20207;-79
2024/01/25 00:30:25;;;;;;;25.90;24.30;;;;;;;-141.02;100.00;82020.88;5114750;28;20277;-79
2024/01/25 00:32:52;;;;;;;26.70;25.10;;;;;;;-141.02;100.00;82020.88;5114571;28;20194;-78
2024/01/25 00:35:20;;;;;;;22.17;20.77;;;;;;;-141.02;100.00;82020.88;5114531;28;20286;-80
2024/01/25 00:37:47;;;;;;;22.03;20.63;;;;;;;-141.02;100.00;81772.31;5114195;28;20225;-79
2024/01/25 00:40:16;;;;;;;27.33;25.63;;;;;;;-141.02;100.00;81772.31;5114429;28;20579;-79
2024/01/25 00:42:48;;;;;;;26.40;24.80;;;;;;;-141.02;100.00;82020.88;5114000;28;20193;-79
2024/01/25 00:45:16;;;;;;;21.40;20.00;;;;;;;-141.02;100.00;82269.47;5114042;28;20185;-77
2024/01/25 00:47:42;;;;;;;27.17;25.47;;;;;;;-141.02;100.00;82269.47;5114279;28;20271;-76
2024/01/25 00:50:17;;;;;;;27.30;25.60;;;;;;;-141.02;100.00;82269.47;5114247;28;20745;-78
2024/01/25 00:52:44;;;;;;;27.50;25.80;;;;;;;-141.02;99.86;81772.31;5113888;28;20228;-79
2024/01/25 00:55:12;;;;;;;22.50;21.10;;;;;;;-141.02;100.00;82518.06;5114174;28;20284;-81
2024/01/25 00:57:42;;;;;;;29.27;27.47;;;;;;;-141.02;97.30;82269.47;5113963;28;20266;-78
2024/01/25 01:00:09;;;;;;;27.43;25.73;;;;;;;-141.02;97.10;82518.06;5113963;28;20288;-76
2024/01/25 01:02:41;;;;;;;21.37;19.87;;;;;;;-141.02;94.87;82269.47;5113913;28;20258;-74
2024/01/25 01:05:09;;;;;;;21.03;19.53;;;;;;;-141.02;96.18;82518.06;5113910;28;20270;-77
2024/01/25 01:07:37;;;;;;;22.07;20.67;;;;;;;-141.02;94.59;82020.88;5113531;28;20653;-78
2024/01/25 01:10:07;;;;;;;23.60;22.10;;;;;;;-141.02;93.27;82269.47;5113903;28;20276;-75
2024/01/25 01:12:33;;;;;;;24.90;23.30;;;;;;;-141.02;91.68;82020.88;5113817;28;20288;-75
2024/01/25 01:15:02;;;;;;;23.97;22.37;;;;;;;-141.02;92.65;82020.88;5113447;28;20193;-78
2024/01/25 01:17:29;;;;;;;23.37;21.77;;;;;;;-141.02;89.18;82020.88;5113604;28;20235;-76
2024/01/25 01:19:56;;;;;;;24.70;23.00;;;;;;;-141.02;90.22;82020.88;5113321;28;20824;-75
2024/01/25 01:22:23;;;;;;;23.03;21.43;;;;;;;-141.02;93.78;82020.88;5113679;28;20195;-76
2024/01/25 01:24:50;;;;;;;22.50;21.10;;;;;;;-141.02;97.66;81772.31;5113331;28;20743;-77
2024/01/25 01:27:17;;;;;;;23.40;21.97;;;;;;;-141.02;99.95;82020.88;5113222;28;20200;-76
2024/01/25 01:29:44;;;;;;;29.90;28.20;;;;;;;-141.02;99.91;81772.31;5113111;28;20626;-74
2024/01/25 01:32:12;;;;;;;32.00;30.20;;;;;;;-141.02;100.00;81772.31;5113695;28;20239;-78
2024/01/25 01:34:39;;;;;;;33.20;31.30;;;;;;;-141.02;100.00;81523.75;5113166;28;20728;-75
2024/01/25 01:37:18;;;;;;;32.37;30.57;;;;;;;-141.02;100.00;81523.75;5112968;28;20196;-75
2024/01/25 01:39:45;;;;;;;32.77;30.97;;;;;;;-141.02;100.00;81026.72;5113061;28;20192;-77
2024/01/25 01:42:12;;;;;;;33.83;31.93;;;;;;;-141.02;100.00;81026.72;5112876;28;20200;-75
2024/01/25 01:44:40;;;;;;;33.00;31.20;;;;;;;-141.02;100.00;80778.25;5113197;28;20221;-77
2024/01/25 01:47:08;;;;;;;32.00;30.20;;;;;;;-141.02;100.00;81026.72;5113131;28;20327;-77
2024/01/25 01:49:37;;;;;;;29.50;27.90;;;;;;;-141.02;100.00;81523.75;5112868;28;20279;-76
2024/01/25 01:52:04;;;;;;;30.70;29.00;;;;;;;-141.02;100.00;81772.31;5113149;28;20189;-76
2024/01/25 01:54:31;;;;;;;30.97;29.27;;;;;;;-141.02;100.00;82020.88;5112281;28;20193;-76
2024/01/25 01:56:59;;;;;;;30.47;28.77;;;;;;;-141.02;100.00;82269.47;5112659;28;20645;-78
2024/01/25 01:59:26;;;;;;;30.47;28.77;;;;;;;-141.02;100.00;82518.06;5113015;28;20661;-73
2024/01/25 02:01:53;;;;;;;30.50;28.80;;;;;;;-141.02;100.00;83015.31;5112897;28;20199;-76
2024/01/25 02:04:20;;;;;;;34.03;32.07;;;;;;;-141.02;100.00;83263.97;5112606;28;20651;-75
2024/01/25 02:06:49;;;;;;;35.27;33.17;;;;;;;-141.02;100.00;83512.63;5112614;28;20679;-78
2024/01/25 02:09:16;;;;;;;30.73;28.93;;;;;;;-141.02;100.00;83512.63;5112810;28;20296;-78
2024/01/25 02:11:43;;;;;;;31.63;29.83;;;;;;;-141.02;100.00;83761.31;5113166;28;20319;-73
2024/01/25 02:14:11;;;;;;;34.30;32.40;;;;;;;-141.02;100.00;83761.31;5112460;28;20283;-77
2024/01/25 02:16:39;;;;;;;37.20;35.00;;;;;;;-141.02;100.00;83761.31;5113379;28;20296;-77
2024/01/25 02:19:06;;;;;;;38.07;35.77;;;;;;;-141.02;100.00;83761.31;5112441;28;20236;-76
2024/01/25 02:21:32;;;;;;;35.70;33.60;;;;;;;-141.02;100.00;84258.75;5112704;28;20220;-76
2024/01/25 02:24:01;;;;;;;35.67;33.57;;;;;;;-141.02;100.00;84756.25;5112351;28;20285;-74
2024/01/25 02:26:28;;;;;;;33.47;31.47;;;;;;;-141.02;100.00;85005.03;5112557;28;20644;-75
2024/01/25 02:28:55;;;;;;;36.07;33.97;;;;;;;-141.02;100.00;85253.84;5112558;28;20224;-76
2024/01/25 02:31:22;;;;;;;35.00;33.00;;;;;;;-141.02;100.00;85502.66;5112631;28;20192;-73
2024/01/25 02:33:49;;;;;;;35.27;33.27;;;;;;;-141.02;100.00;85502.66;5112310;28;20291;-78
2024/01/25 02:36:16;;;;;;;29.73;27.93;;;;;;;-141.02;99.07;85253.84;5112235;28;20647;-76
2024/01/25 02:38:43;;;;;;;32.87;30.90;;;;;;;-141.02;100.00;85253.84;5112219;28;20260;-75
2024/01/25 02:41:18;;;;;;;34.53;32.43;;;;;;;-141.02;99.98;85502.66;5112452;28;20720;-77
2024/01/25 02:43:45;;;;;;;34.00;32.00;;;;;;;-141.02;100.00;85253.84;5112781;28;20196;-73
2024/01/25 02:46:15;;;;;;;32.40;30.50;;;;;;;-141.02;100.00;85253.84;5112224;28;20284;-74
2024/01/25 02:48:42;;;;;;;33.83;31.83;;;;;;;-141.02;100.00;85253.84;5112192;28;20548;-75
2024/01/25 02:51:09;;;;;;;31.87;30.07;;;;;;;-141.02;100.00;85253.84;5112447;28;20634;-74
2024/01/25 02:53:36;;;;;;;33.90;32.00;;;;;;;-141.02;100.00;85502.66;5112140;28;20631;-76
2024/01/25 02:56:03;;;;;;;32.73;30.83;;;;;;;-141.02;100.00;85502.66;5112473;28;20197;-73
2024/01/25 02:58:31;;;;;;;32.17;30.17;;;;;;;-141.02;100.00;85502.66;5112301;28;20312;-77
2024/01/25 03:00:58;;;;;;;33.97;31.87;;;;;;;-141.02;100.00;85502.66;5112319;28;20280;-73
2024/01/25 03:03:26;;;;;;;34.90;32.90;;;;;;;-141.02;100.00;85502.66;5112334;28;20224;-78
2024/01/25 03:05:53;;;;;;;34.23;32.13;;;;;;;-141.02;100.00;85502.66;5112474;28;20662;-78
2024/01/25 03:08:20;;;;;;;29.63;27.83;;;;;;;-141.02;100.00;85253.84;5116137;28;20197;-76
2024/01/25 03:10:49;;;;;;;34.10;32.10;;;;;;;-141.02;100.00;85502.66;5116243;28;20566;-77
2024/01/25 03:13:16;;;;;;;33.93;32.03;;;;;;;-141.02;100.00;85502.66;5115869;28;20251;-71
2024/01/25 03:15:45;;;;;;;32.17;30.37;;;;;;;-141.02;100.00;85751.50;5115793;28;20189;-78
2024/01/25 03:18:12;;;;;;;32.87;30.97;;;;;;;-141.02;100.00;86000.34;5115653;28;20220;-69
2024/01/25 03:20:42;;;;;;;31.43;29.63;;;;;;;-141.02;100.00;86249.22;5115496;28;20320;-76
2024/01/25 03:23:09;;;;;;;31.63;29.83;;;;;;;-141.02;100.00;86249.22;5115950;28;20244;-73
2024/01/25 03:25:36;;;;;;;33.27;31.37;;;;;;;-141.02;100.00;86498.09;5115953;28;20197;-75
2024/01/25 03:28:03;;;;;;;32.20;30.30;;;;;;;-141.02;100.00;86498.09;5115867;28;20287;-75
2024/01/25 03:30:29;;;;;;;32.40;30.60;;;;;;;-141.02;100.00;86498.09;5115742;28;20199;-75
2024/01/25 03:32:58;;;;;;;35.57;33.57;;;;;;;-141.02;100.00;86747.00;5115481;28;20635;-75
2024/01/25 03:35:25;;;;;;;34.13;32.23;;;;;;;-141.02;100.00;86995.94;5115490;28;20196;-77
2024/01/25 03:37:52;;;;;;;32.63;30.83;;;;;;;-141.02;100.00;87244.88;5116117;28;20237;-75
2024/01/25 03:40:19;;;;;;;31.03;29.33;;;;;;;-141.02;100.00;87244.88;5115525;28;20274;-74
2024/01/25 03:42:46;;;;;;;29.63;28.03;;;;;;;-141.02;100.00;87244.88;5115244;28;20659;-75
2024/01/25 03:45:13;;;;;;;33.23;31.33;;;;;;;-141.02;100.00;86995.94;5115183;28;20233;-70
2024/01/25 03:47:40;;;;;;;31.53;29.73;;;;;;;-141.02;100.00;86498.09;5115488;28;20201;-69
2024/01/25 03:50:09;;;;;;;26.87;25.43;;;;;;;-141.02;100.00;86249.22;5115122;28;20197;-73
2024/01/25 03:52:36;;;;;;;28.57;27.07;;;;;;;-141.02;100.00;86249.22;5116242;28;20197;-70
2024/01/25 03:55:04;;;;;;;30.77;29.17;;;;;;;-141.02;100.00;86249.22;5114968;28;20284;-75
2024/01/25 03:57:31;;;;;;;27.60;26.20;;;;;;;-141.02;100.00;86249.22;5115251;28;20566;-69
2024/01/25 03:59:58;;;;;;;24.97;23.77;;;;;;;-141.02;100.00;86249.22;5115415;28;20316;-73
2024/01/25 04:02:25;;;;;;;29.67;28.17;;;;;;;-141.02;100.00;86249.22;5115202;28;20284;-75
2024/01/25 04:04:52;;;;;;;31.27;29.67;;;;;;;-141.02;100.00;86249.22;5114869;28;20288;-73
2024/01/25 04:07:36;;;;;;;28.50;27.10;;;;;;;-141.02;100.00;86249.22;5114826;28;20635;-70
2024/01/25 04:10:03;;;;;;;20.63;19.63;;;;;;;-141.02;100.00;86249.22;5114729;28;20192;-72
2024/01/25 04:12:31;;;;;;;29.00;27.60;;;;;;;-141.02;100.00;86498.09;5115124;28;20189;-73
2024/01/25 04:14:58;;;;;;;29.30;27.90;;;;;;;-141.02;100.00;86995.94;5114654;28;20239;-73
2024/01/25 04:17:25;;;;;;;26.87;25.57;;;;;;;-141.02;100.00;87244.88;5114171;28;20597;-72
2024/01/25 04:19:52;;;;;;;25.40;24.20;;;;;;;-141.02;100.00;87493.84;5114500;28;20613;-70
2024/01/25 04:22:19;;;;;;;25.60;24.40;;;;;;;-141.02;100.00;87742.81;5114833;28;20276;-69
2024/01/25 04:24:49;;;;;;;28.77;27.37;;;;;;;-141.02;100.00;87742.81;5114502;28;20280;-72
2024/01/25 04:27:16;;;;;;;25.40;24.20;;;;;;;-141.02;100.00;87991.81;5114505;28;20190;-68
2024/01/25 04:29:44;;;;;;;26.27;24.97;;;;;;;-141.02;100.00;87991.81;5114371;28;20284;-70
2024/01/25 04:32:11;;;;;;;22.43;21.33;;;;;;;-141.02;100.00;88240.81;5114570;28;20199;-69
2024/01/25 04:34:38;;;;;;;22.83;21.73;;;;;;;-141.02;100.00;88240.81;5114346;28;20229;-68
2024/01/25 04:37:05;;;;;;;20.70;19.60;;;;;;;-141.02;100.00;88489.84;5114195;28;20204;-70
2024/01/25 04:39:32;;;;;;;21.47;20.27;;;;;;;-141.02;100.00;88738.88;5114116;28;20319;-67
2024/01/25 04:42:00;;;;;;;22.67;21.47;;;;;;;-141.02;100.00;88738.88;5114431;28;20276;-67
2024/01/25 04:44:27;;;;;;;23.00;21.70;;;;;;;-141.02;100.00;88738.88;5114054;28;20236;-73
2024/01/25 04:46:54;;;;;;;21.07;19.77;;;;;;;-141.02;100.00;88987.97;5114091;28;20744;-70
2024/01/25 04:49:21;;;;;;;20.57;19.27;;;;;;;-141.02;100.00;88738.88;5114127;28;20205;-72
2024/01/25 04:51:48;;;;;;;18.63;17.53;;;;;;;-141.02;100.00;88489.84;5114258;28;20272;-71
2024/01/25 04:54:15;;;;;;;19.13;18.13;;;;;;;-141.02;100.00;88240.81;5113900;28;20289;-70
2024/01/25 04:56:42;;;;;;;19.70;18.60;;;;;;;-141.02;100.00;88240.81;5113891;28;20651;-73
2024/01/25 04:59:11;;;;;;;20.57;19.47;;;;;;;-141.02;100.00;87742.81;5114041;28;20319;-72
2024/01/25 05:01:38;;;;;;;22.20;21.10;;;;;;;-141.02;100.00;87244.88;5114014;28;20195;-71
2024/01/25 05:04:05;;;;;;;24.83;23.63;;;;;;;-141.02;100.00;87244.88;5113944;28;20195;-72
2024/01/25 05:06:32;;;;;;;20.30;19.30;;;;;;;-141.02;100.00;86995.94;5113863;28;20201;-72
2024/01/25 05:08:59;;;;;;;19.27;18.37;;;;;;;-141.02;100.00;86995.94;5113556;28;20250;-73
2024/01/25 05:11:26;;;;;;;21.93;20.83;;;;;;;-141.02;100.00;87493.84;5113832;28;20197;-71
2024/01/25 05:13:53;;;;;;;21.73;20.63;;;;;;;-141.02;100.00;87742.81;5113484;28;20199;-71
2024/01/25 05:16:21;;;;;;;21.00;19.90;;;;;;;-141.02;100.00;87991.81;5113474;28;20193;-70
2024/01/25 05:18:48;;;;;;;24.50;23.20;;;;;;;-141.02;100.00;88240.81;5113335;28;20231;-70
2024/01/25 05:21:28;;;;;;;24.27;22.87;;;;;;;-141.02;100.00;88738.88;5113628;28;20222;-69
2024/01/25 05:23:55;;;;;;;21.87;20.67;;;;;;;-141.02;100.00;88738.88;5113319;28;20670;-68
2024/01/25 05:26:22;;;;;;;25.27;23.87;;;;;;;-141.02;100.00;88987.97;5113292;28;20292;-69
2024/01/25 05:28:49;;;;;;;24.07;22.67;;;;;;;-141.02;100.00;88987.97;5112774;28;20204;-69
2024/01/25 05:31:16;;;;;;;25.80;24.30;;;;;;;-141.02;100.00;88987.97;5113139;28;20196;-68
2024/01/25 05:33:44;;;;;;;28.60;27.00;;;;;;;-141.02;100.00;88987.97;5113118;28;20726;-66
2024/01/25 05:36:12;;;;;;;27.33;25.73;;;;;;;-141.02;100.00;88987.97;5113085;28;20197;-67
2024/01/25 05:38:38;;;;;;;29.60;27.90;;;;;;;-141.02;100.00;89237.03;5112958;28;20217;-67
2024/01/25 05:41:05;;;;;;;25.00;23.50;;;;;;;-141.02;100.00;89237.03;5113037;28;20199;-67
2024/01/25 05:43:34;;;;;;;27.90;26.30;;;;;;;-141.02;100.00;89237.03;5113269;28;20199;-67
2024/01/25 05:46:01;;;;;;;26.20;24.70;;;;;;;-141.02;100.00;89486.16;5113256;28;20204;-67
2024/01/25 05:48:28;;;;;;;32.10;29.90;;;;;;;-141.02;100.00;89735.28;5112884;28;20268;-67
2024/01/25 05:50:57;;;;;;;26.97;25.37;;;;;;;-141.02;100.00;89735.28;5113133;28;20197;-69
2024/01/25 05:53:24;;;;;;;28.03;26.33;;;;;;;-141.02;100.00;89735.28;5112807;28;20200;-68
2024/01/25 05:55:50;;;;;;;28.43;26.63;;;;;;;-141.02;100.00;89735.28;5113072;28;20197;-67
2024/01/25 05:58:18;;;;;;;24.00;22.50;;;;;;;-141.02;100.00;89735.28;5112685;28;20197;-67
2024/01/25 06:00:45;;;;;;;25.67;23.97;;;;;;;-141.02;100.00;89984.41;5112657;28;20224;-66
2024/01/25 06:03:12;;;;;;;23.87;22.27;;;;;;;-141.02;100.00;89984.41;5112940;28;20577;-69
2024/01/25 06:05:38;;;;;;;27.70;25.90;;;;;;;-141.02;100.00;89984.41;5112626;28;20285;-67
2024/01/25 06:08:07;;;;;;;23.50;22.10;;;;;;;-141.02;100.00;89735.28;5112897;28;20655;-68
2024/01/25 06:10:34;;;;;;;24.77;23.17;;;;;;;-141.02;100.00;89735.28;5112992;28;20193;-68
2024/01/25 06:13:01;;;;;;;25.30;23.63;;;;;;;-141.02;100.00;89735.28;5112792;28;20738;-67
2024/01/25 06:18:15;;;;;;;22.80;21.30;;;;;;;-141.02;100.00;89735.28;5112084;28;20605;-68
2024/01/25 06:20:43;;;;;;;39.93;35.90;;;;;;;-141.02;100.00;89735.28;5112291;28;20320;-67
2024/01/25 06:23:12;;;;;;;25.87;24.17;;;;;;;-141.02;100.00;89735.28;5112840;28;20220;-67
2024/01/25 06:25:39;;;;;;;25.27;23.67;;;;;;;-141.02;100.00;89735.28;5112717;28;20189;-68
2024/01/25 06:28:06;;;;;;;23.57;22.07;;;;;;;-141.02;100.00;89735.28;5112630;28;20197;-68
2024/01/25 06:30:33;;;;;;;22.43;20.93;;;;;;;-141.02;100.00;89486.16;5112351;28;20193;-68
2024/01/25 06:33:00;;;;;;;23.13;21.73;;;;;;;-141.02;100.00;89486.16;5112639;28;20249;-67
2024/01/25 06:35:27;;;;;;;20.70;19.40;;;;;;;-141.02;100.00;89486.16;5112650;28;20276;-67
2024/01/25 06:37:54;;;;;;;22.37;20.97;;;;;;;-141.02;100.00;89486.16;5112536;28;20232;-65
2024/01/25 06:40:22;;;;;;;21.50;20.20;;;;;;;-141.02;100.00;89486.16;5114095;28;20315;-65
2024/01/25 06:42:49;;;;;;;22.53;21.13;;;;;;;-141.02;100.00;89486.16;5116750;28;20279;-65
2024/01/25 06:45:17;;;;;;;21.70;20.30;;;;;;;-141.02;100.00;89735.28;5116688;28;20236;-68
2024/01/25 06:47:44;;;;;;;23.60;22.10;;;;;;;-141.02;100.00;89735.28;5116660;28;20193;-67
2024/01/25 06:50:11;;;;;;;23.47;22.00;;;;;;;-141.02;100.00;89735.28;5116626;28;20276;-67
2024/01/25 06:52:38;;;;;;;25.10;23.50;;;;;;;-141.02;100.00;89735.28;5116583;28;20275;-65
2024/01/25 06:55:05;;;;;;;27.00;25.30;;;;;;;-141.02;100.00;89735.28;5116183;28;20239;-65
2024/01/25 06:57:34;;;;;;;27.93;26.13;;;;;;;-141.02;100.00;89735.28;5116450;28;20224;-65
2024/01/25 07:00:01;;;;;;;25.87;24.27;;;;;;;-141.02;100.00;89735.28;5116055;28;20225;-64
2024/01/25 07:02:28;;;;;;;26.90;25.20;;;;;;;-141.02;100.00;89735.28;5116128;28;20288;-65
2024/01/25 07:04:55;;;;;;;29.43;27.53;;;;;;;-141.02;100.00;89735.28;5116116;28;20197;-65
2024/01/25 07:07:22;;;;;;;27.50;25.70;;;;;;;-141.02;100.00;89735.28;5116204;28;20197;-65
2024/01/25 07:09:49;;;;;;;26.93;25.23;;;;;;;-141.02;100.00;89984.41;5116276;28;20284;-65
2024/01/25 07:12:16;;;;;;;25.80;24.13;;;;;;;-141.02;100.00;89984.41;5115916;28;20286;-66
2024/01/25 07:14:44;;;;;;;28.23;26.43;;;;;;;-141.02;100.00;89984.41;5115874;28;20232;-65
2024/01/25 07:17:11;;;;;;;27.00;25.20;;;;;;;-141.02;100.00;89984.41;5116018;28;20200;-64
2024/01/25 07:19:38;;;;;;;26.80;25.00;;;;;;;-141.02;100.00;89984.41;5115662;28;20701;-65
2024/01/25 07:22:05;;;;;;;29.00;27.10;;;;;;;-141.02;100.00;89984.41;5116022;28;20283;-66
2024/01/25 07:24:32;;;;;;;29.60;27.70;;;;;;;-141.02;100.00;89984.41;5115984;28;20226;-65
2024/01/25 07:26:59;;;;;;;27.60;25.90;;;;;;;-141.02;100.00;89735.28;5115786;28;20292;-67
2024/01/25 07:29:26;;;;;;;25.77;24.27;;;;;;;-141.02;100.00;88987.97;5115900;28;20197;-65
2024/01/25 07:31:54;;;;;;;25.33;23.83;;;;;;;-141.02;100.00;88489.84;5115547;28;20685;-64
2024/01/25 07:34:21;;;;;;;25.20;23.70;;;;;;;-141.02;100.00;88489.84;5115488;28;20280;-65
2024/01/25 07:36:48;;;;;;;25.57;24.07;;;;;;;-141.02;100.00;88240.81;5115447;28;20189;-65
2024/01/25 07:39:15;;;;;;;26.33;24.83;;;;;;;-141.02;100.00;87991.81;5115335;28;20256;-64
2024/01/25 07:41:42;;;;;;;24.57;23.17;;;;;;;-141.02;100.00;87742.81;5115687;28;20208;-67
2024/01/25 07:44:09;;;;;;;25.23;23.83;;;;;;;-141.02;100.00;87991.81;5115631;28;20284;-64
2024/01/25 07:46:36;;;;;;;23.27;21.97;;;;;;;-141.02;100.00;88489.84;5115201;28;20189;-65
2024/01/25 07:49:04;;;;;;;25.43;23.93;;;;;;;-141.02;100.00;88240.81;5115454;28;20204;-65
2024/01/25 07:51:31;;;;;;;23.23;21.93;;;;;;;-141.02;100.00;88489.84;5114672;28;20219;-65
2024/01/25 07:53:58;;;;;;;23.20;21.90;;;;;;;-141.02;100.00;88987.97;5115043;28;20193;-65
2024/01/25 07:56:25;;;;;;;27.80;26.07;;;;;;;-141.02;100.00;89735.28;5114984;28;20288;-66
2024/01/25 08:11:18;;;;;;;19.50;18.00;;;;;;;-141.02;100.00;89984.41;5130945;27;20904;-67
2024/01/25 08:13:45;;;;;;;20.00;18.50;;;;;;;-141.02;100.00;90233.56;5130296;28;20243;-69
2024/01/25 08:16:35;;;;;;;29.97;27.97;;;;;;;-141.02;100.00;90482.72;5130130;28;20288;-66
2024/01/25 08:19:02;;;;;;;29.70;27.60;;;;;;;-141.02;100.00;90482.72;5129997;28;20689;-67
2024/01/25 08:21:30;;;;;;;31.50;29.30;;;;;;;-141.02;100.00;90731.94;5130364;28;20197;-67
2024/01/25 08:23:57;;;;;;;30.47;28.27;;;;;;;-141.02;100.00;90731.94;5130323;28;20192;-68
2024/01/25 08:26:25;;;;;;;32.27;29.87;;;;;;;-141.02;100.00;90731.94;5129934;28;20684;-66
2024/01/25 08:28:52;;;;;;;34.50;31.90;;;;;;;-141.02;100.00;90731.94;5130242;28;20255;-65
2024/01/25 08:31:19;;;;;;;33.30;30.90;;;;;;;-141.02;100.00;90731.94;5129846;28;20203;-66
2024/01/25 08:33:47;;;;;;;35.97;33.37;;;;;;;-141.02;100.00;90731.94;5129811;28;20279;-68
2024/01/25 08:36:14;;;;;;;35.87;33.17;;;;;;;-141.02;100.00;90731.94;5129726;28;20279;-67
2024/01/25 08:38:41;;;;;;;38.27;35.47;;;;;;;-141.02;100.00;90731.94;5129979;28;20219;-66
2024/01/25 08:41:08;;;;;;;35.70;33.10;;;;;;;-141.02;100.00;90981.13;5129734;28;20279;-66
2024/01/25 08:43:36;;;;;;;31.77;29.27;;;;;;;-141.02;100.00;90731.94;5129648;28;20265;-66
2024/01/25 08:46:04;;;;;;;33.40;30.87;;;;;;;-141.02;100.00;90981.13;5129595;28;20197;-66
2024/01/25 08:48:31;;;;;;;36.57;33.87;;;;;;;-141.02;100.00;91230.38;5129852;28;20200;-66
2024/01/25 08:50:58;;;;;;;34.07;31.47;;;;;;;-141.02;100.00;90981.13;5129788;28;20203;-67
2024/01/25 08:53:27;;;;;;;35.30;32.60;;;;;;;-141.02;100.00;90981.13;5129752;28;20236;-67
2024/01/25 08:55:54;;;;;;;36.30;33.50;;;;;;;-141.02;100.00;91230.38;5129669;28;20200;-67
2024/01/25 08:58:21;;;;;;;35.80;33.00;;;;;;;-141.02;100.00;90981.13;5129312;28;20657;-67
2024/01/25 09:00:49;;;;;;;25.50;23.30;;;;;;;-141.02;100.00;90981.13;5129230;28;20708;-67
2024/01/25 09:03:16;;;;;;;22.40;20.30;;;;;;;-141.02;100.00;91230.38;5129307;28;20189;-67
2024/01/25 09:05:45;;;;;;;29.07;26.60;;;;;;;-141.02;97.91;91728.88;5129160;28;20287;-67
2024/01/25 09:08:13;;;;;;;28.70;26.23;;;;;;;-141.02;98.68;92476.78;5129185;28;20193;-67
2024/01/25 09:10:41;;;;;;;21.83;19.73;;;;;;;-141.02;95.10;92227.47;5124575;28;20233;-67
2024/01/25 09:13:08;;;;;;;29.77;27.27;;;;;;;-141.02;95.25;92476.78;5115641;28;20196;-68
2024/01/25 09:16:17;;;;;;;27.27;24.87;;;;;;;-141.02;95.68;91479.63;5115362;28;20279;-69
2024/01/25 09:18:45;;;;;;;23.07;20.87;;;;;;;-141.02;96.07;91479.63;5115232;28;20280;-67
2024/01/25 09:21:12;;;;;;;23.20;21.00;;;;;;;-141.02;97.04;91728.88;5115218;28;20239;-68
2024/01/25 09:23:40;;;;;;;28.03;25.53;;;;;;;-141.02;96.63;90981.13;5115583;28;20284;-68
2024/01/25 09:26:07;;;;;;;28.07;25.67;;;;;;;-141.02;98.73;90981.13;5115431;28;20219;-68
2024/01/25 09:28:34;;;;;;;22.90;20.70;;;;;;;-141.02;99.36;90731.94;5115108;28;20284;-69
2024/01/25 09:31:00;;;;;;;21.30;19.30;;;;;;;-141.02;98.99;91230.38;5115367;28;20236;-69
2024/01/25 09:33:27;;;;;;;25.43;23.23;;;;;;;-141.02;98.00;91230.38;5115325;28;20275;-70
2024/01/25 09:35:56;;;;;;;28.47;26.10;;;;;;;-141.02;98.05;91479.63;5114908;28;20228;-70
2024/01/25 09:38:23;;;;;;;31.73;29.07;;;;;;;-141.02;99.41;91728.88;5115203;28;20267;-70
2024/01/25 09:40:51;;;;;;;22.50;20.30;;;;;;;-141.02;96.40;91978.16;5114837;28;20315;-70
2024/01/25 09:43:19;;;;;;;26.63;24.33;;;;;;;-141.02;96.61;91728.88;5115109;28;20197;-70
2024/01/25 09:45:50;;;;;;;36.50;33.33;;;;;;;-141.02;96.40;91728.88;5115031;28;20279;-70
2024/01/25 09:48:17;;;;;;;29.87;27.37;;;;;;;-141.02;96.65;91479.63;5115057;28;20196;-73
2024/01/25 09:50:48;;;;;;;31.10;28.50;;;;;;;-141.02;95.82;90981.13;5114600;28;20695;-70
2024/01/25 09:53:24;;;;;;;22.03;19.93;;;;;;;-141.02;97.88;91230.38;5114762;28;20674;-70
2024/01/25 09:56:02;;;;;;;22.40;20.30;;;;;;;-141.02;98.29;91479.63;5114941;28;20289;-70
2024/01/25 09:58:39;;;;;;;25.43;23.23;;;;;;;-141.02;97.01;91479.63;5114921;28;20243;-70
2024/01/25 10:01:10;;;;;;;26.90;24.60;;;;;;;-141.02;96.35;91728.88;5114813;28;20219;-70
2024/01/25 10:03:39;;;;;;;21.80;19.70;;;;;;;-141.02;95.80;92726.13;5114496;28;20597;-72
2024/01/25 10:06:07;;;;;;;22.30;20.20;;;;;;;-141.02;95.93;92975.47;5114683;28;20204;-71
2024/01/25 10:08:36;;;;;;;29.03;26.63;;;;;;;-141.02;97.97;92476.78;5114373;28;20193;-71
2024/01/25 10:11:03;;;;;;;26.60;24.40;;;;;;;-141.02;96.57;91978.16;5114081;28;20235;-70
2024/01/25 10:13:30;;;;;;;24.20;22.10;;;;;;;-141.02;97.90;91978.16;5114277;28;20219;-70
2024/01/25 10:15:57;;;;;;;20.93;19.03;;;;;;;-141.02;97.54;92227.47;5114438;28;20232;-70
2024/01/25 10:18:27;;;;;;;28.17;25.77;;;;;;;-141.02;94.67;92726.13;5115082;28;20197;-70
2024/01/25 10:20:55;;;;;;;29.30;26.77;;;;;;;-141.02;93.54;93224.84;5114296;28;20229;-72
2024/01/25 10:23:22;;;;;;;22.93;20.67;;;;;;;-141.02;90.54;93723.63;5113073;28;20203;-70
2024/01/25 10:25:50;;;;;;;23.13;20.93;;;;;;;-141.02;89.01;92975.47;5114016;28;20193;-71
2024/01/25 10:28:17;;;;;;;30.05;27.42;;;;;;;-141.02;88.38;92726.13;5114285;28;20193;-70
2024/01/25 10:30:44;;;;;;;31.70;28.97;;;;;;;-141.02;88.77;92975.47;5113927;28;20285;-71
2024/01/25 10:33:12;;;;;;;31.10;28.30;;;;;;;-141.02;87.33;91978.16;5113815;28;20239;-71
2024/01/25 10:35:41;;;;;;;23.20;20.90;;;;;;;-141.02;88.43;91728.88;5113848;28;20203;-73
2024/01/25 10:38:08;;;;;;;27.83;25.33;;;;;;;-141.02;88.81;91728.88;5114026;28;20220;-72
2024/01/25 10:40:36;;;;;;;29.97;27.33;;;;;;;-141.02;90.83;91728.88;5113577;28;20311;-72
2024/01/25 10:43:05;;;;;;;24.10;21.70;;;;;;;-141.02;90.43;91728.88;5113632;28;20193;-71
2024/01/25 10:45:32;;;;;;;24.80;22.40;;;;;;;-141.02;87.83;91978.16;5113483;28;20199;-72
2024/01/25 10:48:00;;;;;;;29.83;27.23;;;;;;;-141.02;88.84;92227.47;5113868;28;20278;-73
2024/01/25 10:50:27;;;;;;;31.50;28.73;;;;;;;-141.02;89.79;91978.16;5113753;28;20258;-72
2024/01/25 10:52:55;;;;;;;31.43;28.63;;;;;;;-141.02;87.77;91728.88;5113736;28;20596;-73
2024/01/25 10:55:22;;;;;;;24.33;21.93;;;;;;;-141.02;90.16;92227.47;5113736;28;20277;-73
2024/01/25 10:57:49;;;;;;;28.13;25.53;;;;;;;-141.02;88.22;92227.47;5113357;28;20289;-74
2024/01/25 11:00:18;;;;;;;28.77;26.10;;;;;;;-141.02;89.21;92227.47;5113223;28;20319;-74
2024/01/25 11:02:47;;;;;;;31.73;28.93;;;;;;;-141.02;88.90;91978.16;5113518;28;20232;-74
2024/01/25 11:05:15;;;;;;;23.30;21.00;;;;;;;-141.02;87.84;91978.16;5113322;28;20196;-74
2024/01/25 11:07:44;;;;;;;30.63;27.93;;;;;;;-141.02;87.46;91728.88;5113497;28;20272;-75
2024/01/25 11:10:19;;;;;;;32.23;29.33;;;;;;;-141.02;87.16;92227.47;5112945;28;20608;-75
2024/01/25 11:12:52;;;;;;;31.30;28.60;;;;;;;-141.02;88.31;91978.16;5113069;28;20188;-75
2024/01/25 11:15:30;;;;;;;24.10;21.73;;;;;;;-141.02;87.69;91230.38;5113368;28;20276;-75